sensor_id;sensor_type;location;lat;lon;timestamp;temperature;humidity
40960;DHT22;27842;52.272;8.052;2024-02-21T00:01:35;9.20;99.90
40960;DHT22;27842;52.272;8.052;2024-02-21T00:04:01;9.20;99.90
40960;DHT22;27842;52.272;8.052;2024-02-21T00:06:27;9.20;99.90
40960;DHT22;27842;52.272;8.052;2024-02-21T00:08:52;9.20;99.90
40960;DHT22;27842;52.272;8.052;2024-02-21T00:11:18;9.20;99.90
40960;DHT22;27842;52.272;8.052;2024-02-21T00:13:43;9.20;99.90
40960;DHT22;27842;52.272;8.052;2024-02-21T00:16:09;9.20;99.90
40960;DHT22;27842;52.272;8.052;2024-02-21T00:18:36;9.20;99.90
40960;DHT22;27842;52.272;8.052;2024-02-21T00:21:01;9.20;99.90
40960;DHT22;27842;52.272;8.052;2024-02-21T00:23:27;9.20;99.90
40960;DHT22;27842;52.272;8.052;2024-02-21T00:25:54;9.30;99.90
40960;DHT22;27842;52.272;8.052;2024-02-21T00:28:19;9.20;99.90
40960;DHT22;27842;52.272;8.052;2024-02-21T00:30:45;9.20;99.90
40960;DHT22;27842;52.272;8.052;2024-02-21T00:33:13;9.20;99.90
40960;DHT22;27842;52.272;8.052;2024-02-21T00:35:38;9.20;99.90
40960;DHT22;27842;52.272;8.052;2024-02-21T00:38:04;9.30;99.90
40960;DHT22;27842;52.272;8.052;2024-02-21T00:40:29;9.20;99.90
40960;DHT22;27842;52.272;8.052;2024-02-21T00:42:55;9.20;99.90
40960;DHT22;27842;52.272;8.052;2024-02-21T00:45:20;9.30;99.90
40960;DHT22;27842;52.272;8.052;2024-02-21T00:47:46;9.20;99.90
40960;DHT22;27842;52.272;8.052;2024-02-21T00:50:17;9.20;99.90
40960;DHT22;27842;52.272;8.052;2024-02-21T00:52:43;9.20;99.90
40960;DHT22;27842;52.272;8.052;2024-02-21T00:55:08;9.20;99.90
40960;DHT22;27842;52.272;8.052;2024-02-21T00:57:34;9.20;99.90
40960;DHT22;27842;52.272;8.052;2024-02-21T01:00:00;9.20;99.90
40960;DHT22;27842;52.272;8.052;2024-02-21T01:02:26;9.20;99.90
40960;DHT22;27842;52.272;8.052;2024-02-21T01:04:51;9.20;99.90
40960;DHT22;27842;52.272;8.052;2024-02-21T01:07:17;9.20;99.90
40960;DHT22;27842;52.272;8.052;2024-02-21T01:09:42;9.20;99.90
40960;DHT22;27842;52.272;8.052;2024-02-21T01:12:08;9.30;99.90
40960;DHT22;27842;52.272;8.052;2024-02-21T01:14:33;9.20;99.90
40960;DHT22;27842;52.272;8.052;2024-02-21T01:16:59;9.20;99.90
40960;DHT22;27842;52.272;8.052;2024-02-21T01:19:25;9.20;99.90
40960;DHT22;27842;52.272;8.052;2024-02-21T01:21:53;9.20;99.90
40960;DHT22;27842;52.272;8.052;2024-02-21T01:24:19;9.30;99.90
40960;DHT22;27842;52.272;8.052;2024-02-21T01:26:44;9.20;99.90
40960;DHT22;27842;52.272;8.052;2024-02-21T01:29:10;9.20;99.90
40960;DHT22;27842;52.272;8.052;2024-02-21T01:31:35;9.20;99.90
40960;DHT22;27842;52.272;8.052;2024-02-21T01:34:01;9.20;99.90
40960;DHT22;27842;52.272;8.052;2024-02-21T01:36:26;9.20;99.90
40960;DHT22;27842;52.272;8.052;2024-02-21T01:38:52;9.20;99.90
40960;DHT22;27842;52.272;8.052;2024-02-21T01:41:17;9.30;99.90
40960;DHT22;27842;52.272;8.052;2024-02-21T01:43:43;9.20;99.90
40960;DHT22;27842;52.272;8.052;2024-02-21T01:46:08;9.20;99.90
40960;DHT22;27842;52.272;8.052;2024-02-21T01:48:34;9.20;99.90
40960;DHT22;27842;52.272;8.052;2024-02-21T01:51:01;9.30;99.90
40960;DHT22;27842;52.272;8.052;2024-02-21T01:53:43;9.30;99.90
40960;DHT22;27842;52.272;8.052;2024-02-21T01:56:09;9.20;99.90
40960;DHT22;27842;52.272;8.052;2024-02-21T01:58:37;9.20;99.90
40960;DHT22;27842;52.272;8.052;2024-02-21T02:01:03;9.20;99.90
40960;DHT22;27842;52.272;8.052;2024-02-21T02:03:29;9.20;99.90
40960;DHT22;27842;52.272;8.052;2024-02-21T02:05:55;9.20;99.90
40960;DHT22;27842;52.272;8.052;2024-02-21T02:08:21;9.20;99.90
40960;DHT22;27842;52.272;8.052;2024-02-21T02:10:49;9.20;99.90
40960;DHT22;27842;52.272;8.052;2024-02-21T02:13:16;9.20;99.90
40960;DHT22;27842;52.272;8.052;2024-02-21T02:15:49;9.20;99.90
40960;DHT22;27842;52.272;8.052;2024-02-21T02:18:15;9.20;99.90
40960;DHT22;27842;52.272;8.052;2024-02-21T02:20:41;9.20;99.90
40960;DHT22;27842;52.272;8.052;2024-02-21T02:23:12;9.20;99.90
40960;DHT22;27842;52.272;8.052;2024-02-21T02:25:40;9.20;99.90
40960;DHT22;27842;52.272;8.052;2024-02-21T02:28:08;9.20;99.90
40960;DHT22;27842;52.272;8.052;2024-02-21T02:30:37;9.20;99.90
40960;DHT22;27842;52.272;8.052;2024-02-21T02:33:06;9.20;99.90
40960;DHT22;27842;52.272;8.052;2024-02-21T02:35:32;9.20;99.90
40960;DHT22;27842;52.272;8.052;2024-02-21T02:37:58;9.30;99.90
40960;DHT22;27842;52.272;8.052;2024-02-21T02:40:24;9.20;99.90
40960;DHT22;27842;52.272;8.052;2024-02-21T02:42:50;9.30;99.90
40960;DHT22;27842;52.272;8.052;2024-02-21T02:45:16;9.20;99.90
40960;DHT22;27842;52.272;8.052;2024-02-21T02:47:44;9.20;99.90
40960;DHT22;27842;52.272;8.052;2024-02-21T02:50:14;9.20;99.90
40960;DHT22;27842;52.272;8.052;2024-02-21T02:52:40;9.20;99.90
40960;DHT22;27842;52.272;8.052;2024-02-21T02:55:06;9.20;99.90
40960;DHT22;27842;52.272;8.052;2024-02-21T02:57:32;9.20;99.90
40960;DHT22;27842;52.272;8.052;2024-02-21T02:59:58;9.20;99.90
40960;DHT22;27842;52.272;8.052;2024-02-21T03:02:24;9.20;99.90
40960;DHT22;27842;52.272;8.052;2024-02-21T03:04:50;9.20;99.90
40960;DHT22;27842;52.272;8.052;2024-02-21T03:07:16;9.20;99.90
40960;DHT22;27842;52.272;8.052;2024-02-21T03:09:42;9.20;99.90
40960;DHT22;27842;52.272;8.052;2024-02-21T03:12:10;9.20;99.90
40960;DHT22;27842;52.272;8.052;2024-02-21T03:14:36;9.20;99.90
40960;DHT22;27842;52.272;8.052;2024-02-21T03:17:02;9.20;99.90
40960;DHT22;27842;52.272;8.052;2024-02-21T03:19:28;9.20;99.90
40960;DHT22;27842;52.272;8.052;2024-02-21T03:21:54;9.20;99.90
40960;DHT22;27842;52.272;8.052;2024-02-21T03:24:20;9.20;99.90
40960;DHT22;27842;52.272;8.052;2024-02-21T03:26:46;9.20;99.90
40960;DHT22;27842;52.272;8.052;2024-02-21T03:29:14;9.30;99.90
40960;DHT22;27842;52.272;8.052;2024-02-21T03:31:40;9.20;99.90
40960;DHT22;27842;52.272;8.052;2024-02-21T03:34:05;9.20;99.90
40960;DHT22;27842;52.272;8.052;2024-02-21T03:36:31;9.20;99.90
40960;DHT22;27842;52.272;8.052;2024-02-21T03:38:57;9.20;99.90
40960;DHT22;27842;52.272;8.052;2024-02-21T03:41:22;9.20;99.90
40960;DHT22;27842;52.272;8.052;2024-02-21T03:43:48;9.20;99.90
40960;DHT22;27842;52.272;8.052;2024-02-21T03:46:14;9.20;99.90
40960;DHT22;27842;52.272;8.052;2024-02-21T03:48:39;9.20;99.90
40960;DHT22;27842;52.272;8.052;2024-02-21T03:51:05;9.20;99.90
40960;DHT22;27842;52.272;8.052;2024-02-21T03:53:31;9.20;99.90
40960;DHT22;27842;52.272;8.052;2024-02-21T03:55:56;9.20;99.90
40960;DHT22;27842;52.272;8.052;2024-02-21T03:58:25;9.20;99.90
40960;DHT22;27842;52.272;8.052;2024-02-21T04:00:50;9.20;99.90
40960;DHT22;27842;52.272;8.052;2024-02-21T04:03:17;9.20;99.90
40960;DHT22;27842;52.272;8.052;2024-02-21T04:05:42;9.20;99.90
40960;DHT22;27842;52.272;8.052;2024-02-21T04:08:08;9.20;99.90
40960;DHT22;27842;52.272;8.052;2024-02-21T04:10:34;9.20;99.90
40960;DHT22;27842;52.272;8.052;2024-02-21T04:12:59;9.20;99.90
40960;DHT22;27842;52.272;8.052;2024-02-21T04:15:25;9.20;99.90
40960;DHT22;27842;52.272;8.052;2024-02-21T04:17:50;9.20;99.90
40960;DHT22;27842;52.272;8.052;2024-02-21T04:20:17;9.20;99.90
40960;DHT22;27842;52.272;8.052;2024-02-21T04:22:43;9.20;99.90
40960;DHT22;27842;52.272;8.052;2024-02-21T04:25:10;9.20;99.90
40960;DHT22;27842;52.272;8.052;2024-02-21T04:27:37;9.20;99.90
40960;DHT22;27842;52.272;8.052;2024-02-21T04:30:03;9.10;99.90
40960;DHT22;27842;52.272;8.052;2024-02-21T04:32:29;9.20;99.90
40960;DHT22;27842;52.272;8.052;2024-02-21T04:34:54;9.10;99.90
40960;DHT22;27842;52.272;8.052;2024-02-21T04:37:20;9.10;99.90
40960;DHT22;27842;52.272;8.052;2024-02-21T04:39:46;9.20;99.90
40960;DHT22;27842;52.272;8.052;2024-02-21T04:42:11;9.20;99.90
40960;DHT22;27842;52.272;8.052;2024-02-21T04:44:37;9.20;99.90
40960;DHT22;27842;52.272;8.052;2024-02-21T04:47:03;9.20;99.90
40960;DHT22;27842;52.272;8.052;2024-02-21T04:49:29;9.10;99.90
40960;DHT22;27842;52.272;8.052;2024-02-21T04:51:55;9.20;99.90
40960;DHT22;27842;52.272;8.052;2024-02-21T04:54:20;9.10;99.90
40960;DHT22;27842;52.272;8.052;2024-02-21T04:56:46;9.10;99.90
40960;DHT22;27842;52.272;8.052;2024-02-21T04:59:11;9.10;99.90
40960;DHT22;27842;52.272;8.052;2024-02-21T05:01:37;9.10;99.90
40960;DHT22;27842;52.272;8.052;2024-02-21T05:04:02;9.10;99.90
40960;DHT22;27842;52.272;8.052;2024-02-21T05:06:28;9.10;99.90
40960;DHT22;27842;52.272;8.052;2024-02-21T05:08:54;9.00;99.90
40960;DHT22;27842;52.272;8.052;2024-02-21T05:11:21;9.00;99.90
40960;DHT22;27842;52.272;8.052;2024-02-21T05:13:47;9.00;99.90
40960;DHT22;27842;52.272;8.052;2024-02-21T05:16:12;9.00;99.90
40960;DHT22;27842;52.272;8.052;2024-02-21T05:18:38;9.10;99.90
40960;DHT22;27842;52.272;8.052;2024-02-21T05:21:05;9.10;99.90
40960;DHT22;27842;52.272;8.052;2024-02-21T05:23:30;9.00;99.90
40960;DHT22;27842;52.272;8.052;2024-02-21T05:25:56;9.00;99.90
40960;DHT22;27842;52.272;8.052;2024-02-21T05:28:22;9.00;99.90
40960;DHT22;27842;52.272;8.052;2024-02-21T05:30:47;9.10;99.90
40960;DHT22;27842;52.272;8.052;2024-02-21T05:33:13;9.10;99.90
40960;DHT22;27842;52.272;8.052;2024-02-21T05:35:46;9.10;99.90
40960;DHT22;27842;52.272;8.052;2024-02-21T05:38:12;9.00;99.90
40960;DHT22;27842;52.272;8.052;2024-02-21T05:40:37;9.10;99.90
40960;DHT22;27842;52.272;8.052;2024-02-21T05:43:03;9.10;99.90
40960;DHT22;27842;52.272;8.052;2024-02-21T05:45:29;9.10;99.90
40960;DHT22;27842;52.272;8.052;2024-02-21T05:47:54;9.10;99.90
40960;DHT22;27842;52.272;8.052;2024-02-21T05:50:20;9.10;99.90
40960;DHT22;27842;52.272;8.052;2024-02-21T05:52:47;9.10;99.90
40960;DHT22;27842;52.272;8.052;2024-02-21T05:55:12;9.00;99.90
40960;DHT22;27842;52.272;8.052;2024-02-21T05:57:39;9.10;99.90
40960;DHT22;27842;52.272;8.052;2024-02-21T06:00:06;9.10;99.90
40960;DHT22;27842;52.272;8.052;2024-02-21T06:02:32;9.00;99.90
40960;DHT22;27842;52.272;8.052;2024-02-21T06:04:57;9.00;99.90
40960;DHT22;27842;52.272;8.052;2024-02-21T06:07:23;9.10;99.90
40960;DHT22;27842;52.272;8.052;2024-02-21T06:09:48;9.10;99.90
40960;DHT22;27842;52.272;8.052;2024-02-21T06:12:14;9.10;99.90
40960;DHT22;27842;52.272;8.052;2024-02-21T06:14:39;9.10;99.90
40960;DHT22;27842;52.272;8.052;2024-02-21T06:17:05;9.10;99.90
40960;DHT22;27842;52.272;8.052;2024-02-21T06:19:30;9.10;99.90
40960;DHT22;27842;52.272;8.052;2024-02-21T06:21:56;9.20;99.90
40960;DHT22;27842;52.272;8.052;2024-02-21T06:24:21;9.10;99.90
40960;DHT22;27842;52.272;8.052;2024-02-21T06:26:47;9.10;99.90
40960;DHT22;27842;52.272;8.052;2024-02-21T06:29:12;9.10;99.90
40960;DHT22;27842;52.272;8.052;2024-02-21T06:31:39;9.10;99.90
40960;DHT22;27842;52.272;8.052;2024-02-21T06:34:05;9.10;99.90
40960;DHT22;27842;52.272;8.052;2024-02-21T06:36:30;9.20;99.90
40960;DHT22;27842;52.272;8.052;2024-02-21T06:38:56;9.20;99.90
40960;DHT22;27842;52.272;8.052;2024-02-21T06:41:21;9.20;99.90
40960;DHT22;27842;52.272;8.052;2024-02-21T06:43:47;9.20;99.90
40960;DHT22;27842;52.272;8.052;2024-02-21T06:46:26;9.20;99.90
40960;DHT22;27842;52.272;8.052;2024-02-21T06:48:52;9.20;99.90
40960;DHT22;27842;52.272;8.052;2024-02-21T06:51:18;9.20;99.90
40960;DHT22;27842;52.272;8.052;2024-02-21T06:53:44;9.20;99.90
40960;DHT22;27842;52.272;8.052;2024-02-21T06:56:10;9.20;99.90
40960;DHT22;27842;52.272;8.052;2024-02-21T06:58:36;9.10;99.90
40960;DHT22;27842;52.272;8.052;2024-02-21T07:01:01;9.20;99.90
40960;DHT22;27842;52.272;8.052;2024-02-21T07:03:27;9.10;99.90
40960;DHT22;27842;52.272;8.052;2024-02-21T07:05:53;9.10;99.90
40960;DHT22;27842;52.272;8.052;2024-02-21T07:08:18;9.10;99.90
40960;DHT22;27842;52.272;8.052;2024-02-21T07:10:44;9.10;99.90
40960;DHT22;27842;52.272;8.052;2024-02-21T07:13:10;9.10;99.90
40960;DHT22;27842;52.272;8.052;2024-02-21T07:15:35;9.10;99.90
40960;DHT22;27842;52.272;8.052;2024-02-21T07:18:02;9.20;99.90
40960;DHT22;27842;52.272;8.052;2024-02-21T07:20:28;9.20;99.90
40960;DHT22;27842;52.272;8.052;2024-02-21T07:22:54;9.20;99.90
40960;DHT22;27842;52.272;8.052;2024-02-21T07:25:19;9.20;99.90
40960;DHT22;27842;52.272;8.052;2024-02-21T07:27:45;9.20;99.90
40960;DHT22;27842;52.272;8.052;2024-02-21T07:30:11;9.20;99.90
40960;DHT22;27842;52.272;8.052;2024-02-21T07:32:37;9.20;99.90
40960;DHT22;27842;52.272;8.052;2024-02-21T07:35:04;9.20;99.90
40960;DHT22;27842;52.272;8.052;2024-02-21T07:37:31;9.20;99.90
40960;DHT22;27842;52.272;8.052;2024-02-21T07:39:56;9.20;99.90
40960;DHT22;27842;52.272;8.052;2024-02-21T07:42:22;9.20;99.90
40960;DHT22;27842;52.272;8.052;2024-02-21T07:44:47;9.20;99.90
40960;DHT22;27842;52.272;8.052;2024-02-21T07:47:13;9.20;99.90
40960;DHT22;27842;52.272;8.052;2024-02-21T07:49:44;9.30;99.90
40960;DHT22;27842;52.272;8.052;2024-02-21T07:52:11;9.20;99.90
40960;DHT22;27842;52.272;8.052;2024-02-21T07:54:36;9.20;99.90
40960;DHT22;27842;52.272;8.052;2024-02-21T07:57:05;9.30;99.90
40960;DHT22;27842;52.272;8.052;2024-02-21T07:59:30;9.20;99.90
40960;DHT22;27842;52.272;8.052;2024-02-21T08:01:57;9.30;99.90
40960;DHT22;27842;52.272;8.052;2024-02-21T08:04:23;9.30;99.90
40960;DHT22;27842;52.272;8.052;2024-02-21T08:06:55;9.30;99.90
40960;DHT22;27842;52.272;8.052;2024-02-21T08:09:22;9.30;99.90
40960;DHT22;27842;52.272;8.052;2024-02-21T08:11:48;9.30;99.90
40960;DHT22;27842;52.272;8.052;2024-02-21T08:14:14;9.30;99.90
40960;DHT22;27842;52.272;8.052;2024-02-21T08:16:42;9.30;99.90
40960;DHT22;27842;52.272;8.052;2024-02-21T08:19:07;9.30;99.90
40960;DHT22;27842;52.272;8.052;2024-02-21T08:21:33;9.30;99.90
40960;DHT22;27842;52.272;8.052;2024-02-21T08:23:58;9.30;99.90
40960;DHT22;27842;52.272;8.052;2024-02-21T08:26:24;9.30;99.90
40960;DHT22;27842;52.272;8.052;2024-02-21T08:28:53;9.30;99.90
40960;DHT22;27842;52.272;8.052;2024-02-21T08:31:21;9.40;99.90
40960;DHT22;27842;52.272;8.052;2024-02-21T08:33:48;9.30;99.90
40960;DHT22;27842;52.272;8.052;2024-02-21T08:36:18;9.40;99.90
40960;DHT22;27842;52.272;8.052;2024-02-21T08:38:44;9.40;99.90
40960;DHT22;27842;52.272;8.052;2024-02-21T08:41:10;9.40;99.90
40960;DHT22;27842;52.272;8.052;2024-02-21T08:43:36;9.40;99.90
40960;DHT22;27842;52.272;8.052;2024-02-21T08:46:02;9.40;99.90
40960;DHT22;27842;52.272;8.052;2024-02-21T08:48:27;9.50;99.90
40960;DHT22;27842;52.272;8.052;2024-02-21T08:50:56;9.50;99.90
40960;DHT22;27842;52.272;8.052;2024-02-21T08:53:22;9.50;99.90
40960;DHT22;27842;52.272;8.052;2024-02-21T08:55:47;9.50;99.90
40960;DHT22;27842;52.272;8.052;2024-02-21T08:58:13;9.50;99.90
40960;DHT22;27842;52.272;8.052;2024-02-21T09:00:40;9.50;99.90
40960;DHT22;27842;52.272;8.052;2024-02-21T09:03:06;9.50;99.90
40960;DHT22;27842;52.272;8.052;2024-02-21T09:05:31;9.50;99.90
40960;DHT22;27842;52.272;8.052;2024-02-21T09:07:57;9.60;99.90
40960;DHT22;27842;52.272;8.052;2024-02-21T09:10:23;9.60;99.90
40960;DHT22;27842;52.272;8.052;2024-02-21T09:12:48;9.60;99.90
40960;DHT22;27842;52.272;8.052;2024-02-21T09:15:14;9.60;99.90
40960;DHT22;27842;52.272;8.052;2024-02-21T09:17:39;9.70;99.90
40960;DHT22;27842;52.272;8.052;2024-02-21T09:20:06;9.70;99.90
40960;DHT22;27842;52.272;8.052;2024-02-21T09:22:33;9.70;99.90
40960;DHT22;27842;52.272;8.052;2024-02-21T09:25:00;9.70;99.90
40960;DHT22;27842;52.272;8.052;2024-02-21T09:27:26;9.70;99.90
40960;DHT22;27842;52.272;8.052;2024-02-21T09:29:51;9.70;99.90
40960;DHT22;27842;52.272;8.052;2024-02-21T09:32:20;9.80;99.90
40960;DHT22;27842;52.272;8.052;2024-02-21T09:34:46;9.80;99.90
40960;DHT22;27842;52.272;8.052;2024-02-21T09:37:11;9.80;99.90
40960;DHT22;27842;52.272;8.052;2024-02-21T09:39:37;9.80;99.90
40960;DHT22;27842;52.272;8.052;2024-02-21T09:42:06;9.90;99.90
40960;DHT22;27842;52.272;8.052;2024-02-21T09:44:38;9.90;99.90
40960;DHT22;27842;52.272;8.052;2024-02-21T09:47:18;9.90;99.90
40960;DHT22;27842;52.272;8.052;2024-02-21T09:49:44;10.00;99.90
40960;DHT22;27842;52.272;8.052;2024-02-21T09:52:12;10.00;99.90
40960;DHT22;27842;52.272;8.052;2024-02-21T09:54:39;10.10;99.90
40960;DHT22;27842;52.272;8.052;2024-02-21T09:57:08;10.10;99.90
40960;DHT22;27842;52.272;8.052;2024-02-21T09:59:33;10.10;99.90
40960;DHT22;27842;52.272;8.052;2024-02-21T10:01:59;10.10;99.90
40960;DHT22;27842;52.272;8.052;2024-02-21T10:04:28;10.20;99.90
40960;DHT22;27842;52.272;8.052;2024-02-21T10:06:54;10.10;99.90
40960;DHT22;27842;52.272;8.052;2024-02-21T10:09:25;10.20;99.90
40960;DHT22;27842;52.272;8.052;2024-02-21T10:11:53;10.20;99.90
40960;DHT22;27842;52.272;8.052;2024-02-21T10:14:19;10.20;99.90
40960;DHT22;27842;52.272;8.052;2024-02-21T10:16:49;10.20;99.90
40960;DHT22;27842;52.272;8.052;2024-02-21T10:19:21;10.20;99.90
40960;DHT22;27842;52.272;8.052;2024-02-21T10:22:07;10.20;99.90
40960;DHT22;27842;52.272;8.052;2024-02-21T10:24:33;10.30;99.90
40960;DHT22;27842;52.272;8.052;2024-02-21T10:27:09;10.30;99.90
40960;DHT22;27842;52.272;8.052;2024-02-21T10:29:36;10.30;99.90
40960;DHT22;27842;52.272;8.052;2024-02-21T10:32:08;10.30;99.90
40960;DHT22;27842;52.272;8.052;2024-02-21T10:34:35;10.30;99.90
40960;DHT22;27842;52.272;8.052;2024-02-21T10:37:05;10.30;99.90
40960;DHT22;27842;52.272;8.052;2024-02-21T10:39:40;10.30;99.90
40960;DHT22;27842;52.272;8.052;2024-02-21T10:42:06;10.40;99.90
40960;DHT22;27842;52.272;8.052;2024-02-21T10:44:36;10.30;99.90
40960;DHT22;27842;52.272;8.052;2024-02-21T10:47:09;10.40;99.90
40960;DHT22;27842;52.272;8.052;2024-02-21T10:49:38;10.30;99.90
40960;DHT22;27842;52.272;8.052;2024-02-21T10:55:03;10.30;99.90
40960;DHT22;27842;52.272;8.052;2024-02-21T10:57:29;10.30;99.90
40960;DHT22;27842;52.272;8.052;2024-02-21T10:59:58;10.40;99.90
40960;DHT22;27842;52.272;8.052;2024-02-21T11:02:26;10.40;99.90
40960;DHT22;27842;52.272;8.052;2024-02-21T11:04:55;10.40;99.90
40960;DHT22;27842;52.272;8.052;2024-02-21T11:07:20;10.40;99.90
40960;DHT22;27842;52.272;8.052;2024-02-21T11:09:55;10.40;99.90
40960;DHT22;27842;52.272;8.052;2024-02-21T11:12:22;10.40;99.90
40960;DHT22;27842;52.272;8.052;2024-02-21T11:14:48;10.40;99.90
40960;DHT22;27842;52.272;8.052;2024-02-21T11:17:17;10.50;99.90
40960;DHT22;27842;52.272;8.052;2024-02-21T11:19:43;10.50;99.90
40960;DHT22;27842;52.272;8.052;2024-02-21T11:22:16;10.50;99.90
40960;DHT22;27842;52.272;8.052;2024-02-21T11:24:42;10.60;99.90
40960;DHT22;27842;52.272;8.052;2024-02-21T11:27:21;10.60;99.90
40960;DHT22;27842;52.272;8.052;2024-02-21T11:29:54;10.60;99.90
40960;DHT22;27842;52.272;8.052;2024-02-21T11:32:21;10.60;99.90
40960;DHT22;27842;52.272;8.052;2024-02-21T11:35:03;10.60;99.90
40960;DHT22;27842;52.272;8.052;2024-02-21T11:37:33;10.60;99.90
40960;DHT22;27842;52.272;8.052;2024-02-21T11:39:59;10.60;99.90
40960;DHT22;27842;52.272;8.052;2024-02-21T11:42:26;10.60;99.90
40960;DHT22;27842;52.272;8.052;2024-02-21T11:44:59;10.70;99.90
40960;DHT22;27842;52.272;8.052;2024-02-21T11:47:27;10.70;99.90
40960;DHT22;27842;52.272;8.052;2024-02-21T11:49:57;10.60;99.90
40960;DHT22;27842;52.272;8.052;2024-02-21T11:52:24;10.70;99.90
40960;DHT22;27842;52.272;8.052;2024-02-21T11:54:51;10.70;99.90
40960;DHT22;27842;52.272;8.052;2024-02-21T11:57:24;10.70;99.90
40960;DHT22;27842;52.272;8.052;2024-02-21T11:59:53;10.70;99.90
40960;DHT22;27842;52.272;8.052;2024-02-21T12:02:20;10.70;99.90
40960;DHT22;27842;52.272;8.052;2024-02-21T12:04:46;10.60;99.90
40960;DHT22;27842;52.272;8.052;2024-02-21T12:07:12;10.60;99.90
40960;DHT22;27842;52.272;8.052;2024-02-21T12:09:41;10.60;99.90
40960;DHT22;27842;52.272;8.052;2024-02-21T12:12:07;10.60;99.90
40960;DHT22;27842;52.272;8.052;2024-02-21T12:14:34;10.60;99.90
40960;DHT22;27842;52.272;8.052;2024-02-21T12:17:01;10.50;99.90
40960;DHT22;27842;52.272;8.052;2024-02-21T12:19:30;10.50;99.90
40960;DHT22;27842;52.272;8.052;2024-02-21T12:21:58;10.50;99.90
40960;DHT22;27842;52.272;8.052;2024-02-21T12:24:25;10.50;99.90
40960;DHT22;27842;52.272;8.052;2024-02-21T12:26:51;10.40;99.90
40960;DHT22;27842;52.272;8.052;2024-02-21T12:29:19;10.40;99.90
40960;DHT22;27842;52.272;8.052;2024-02-21T12:31:45;10.40;99.90
40960;DHT22;27842;52.272;8.052;2024-02-21T12:34:11;10.30;99.90
40960;DHT22;27842;52.272;8.052;2024-02-21T12:36:41;10.40;99.90
40960;DHT22;27842;52.272;8.052;2024-02-21T12:39:08;10.30;99.90
40960;DHT22;27842;52.272;8.052;2024-02-21T12:41:35;10.30;99.90
40960;DHT22;27842;52.272;8.052;2024-02-21T12:44:04;10.30;99.90
40960;DHT22;27842;52.272;8.052;2024-02-21T12:46:30;10.30;99.90
40960;DHT22;27842;52.272;8.052;2024-02-21T12:48:55;10.30;99.90
40960;DHT22;27842;52.272;8.052;2024-02-21T12:51:21;10.30;99.90
40960;DHT22;27842;52.272;8.052;2024-02-21T12:53:48;10.30;99.90
40960;DHT22;27842;52.272;8.052;2024-02-21T12:56:15;10.30;99.90
40960;DHT22;27842;52.272;8.052;2024-02-21T12:58:41;10.30;99.90
40960;DHT22;27842;52.272;8.052;2024-02-21T13:01:06;10.30;99.90
40960;DHT22;27842;52.272;8.052;2024-02-21T13:03:32;10.30;99.90
40960;DHT22;27842;52.272;8.052;2024-02-21T13:05:57;10.30;99.90
40960;DHT22;27842;52.272;8.052;2024-02-21T13:08:24;10.30;99.90
40960;DHT22;27842;52.272;8.052;2024-02-21T13:10:50;10.20;99.90
40960;DHT22;27842;52.272;8.052;2024-02-21T13:13:16;10.20;99.90
40960;DHT22;27842;52.272;8.052;2024-02-21T13:15:41;10.30;99.90
40960;DHT22;27842;52.272;8.052;2024-02-21T13:18:09;10.30;99.90
40960;DHT22;27842;52.272;8.052;2024-02-21T13:20:37;10.30;99.90
40960;DHT22;27842;52.272;8.052;2024-02-21T13:23:03;10.40;99.90
40960;DHT22;27842;52.272;8.052;2024-02-21T13:25:29;10.30;99.90
40960;DHT22;27842;52.272;8.052;2024-02-21T13:27:55;10.30;99.90
40960;DHT22;27842;52.272;8.052;2024-02-21T13:30:22;10.30;99.90
40960;DHT22;27842;52.272;8.052;2024-02-21T13:32:48;10.30;99.90
40960;DHT22;27842;52.272;8.052;2024-02-21T13:35:14;10.30;99.90
40960;DHT22;27842;52.272;8.052;2024-02-21T13:37:43;10.30;99.90
40960;DHT22;27842;52.272;8.052;2024-02-21T13:40:09;10.30;99.90
40960;DHT22;27842;52.272;8.052;2024-02-21T13:42:38;10.30;99.90
40960;DHT22;27842;52.272;8.052;2024-02-21T13:45:05;10.40;99.90
40960;DHT22;27842;52.272;8.052;2024-02-21T13:47:32;10.30;99.90
40960;DHT22;27842;52.272;8.052;2024-02-21T13:50:01;10.30;99.90
40960;DHT22;27842;52.272;8.052;2024-02-21T13:52:26;10.30;99.90
40960;DHT22;27842;52.272;8.052;2024-02-21T13:54:52;10.20;99.90
40960;DHT22;27842;52.272;8.052;2024-02-21T13:57:18;10.30;99.90
40960;DHT22;27842;52.272;8.052;2024-02-21T13:59:43;10.30;99.90
40960;DHT22;27842;52.272;8.052;2024-02-21T14:02:09;10.30;99.90
40960;DHT22;27842;52.272;8.052;2024-02-21T14:04:35;10.30;99.90
40960;DHT22;27842;52.272;8.052;2024-02-21T14:07:01;10.30;99.90
40960;DHT22;27842;52.272;8.052;2024-02-21T14:09:27;10.30;99.90
40960;DHT22;27842;52.272;8.052;2024-02-21T14:11:55;10.30;99.90
40960;DHT22;27842;52.272;8.052;2024-02-21T14:14:20;10.30;99.90
40960;DHT22;27842;52.272;8.052;2024-02-21T14:16:46;10.40;99.90
40960;DHT22;27842;52.272;8.052;2024-02-21T14:19:13;10.40;99.90
40960;DHT22;27842;52.272;8.052;2024-02-21T14:21:39;10.40;99.90
40960;DHT22;27842;52.272;8.052;2024-02-21T14:24:05;10.40;99.90
40960;DHT22;27842;52.272;8.052;2024-02-21T14:26:31;10.40;99.90
40960;DHT22;27842;52.272;8.052;2024-02-21T14:28:57;10.30;99.90
40960;DHT22;27842;52.272;8.052;2024-02-21T14:31:23;10.30;99.90
40960;DHT22;27842;52.272;8.052;2024-02-21T14:33:49;10.40;99.90
40960;DHT22;27842;52.272;8.052;2024-02-21T14:36:14;10.30;99.90
40960;DHT22;27842;52.272;8.052;2024-02-21T14:38:44;10.40;99.90
40960;DHT22;27842;52.272;8.052;2024-02-21T14:41:10;10.40;99.90
40960;DHT22;27842;52.272;8.052;2024-02-21T14:43:38;10.40;99.90
40960;DHT22;27842;52.272;8.052;2024-02-21T14:46:04;10.40;99.90
40960;DHT22;27842;52.272;8.052;2024-02-21T14:48:31;10.40;99.90
40960;DHT22;27842;52.272;8.052;2024-02-21T14:50:58;10.30;99.90
40960;DHT22;27842;52.272;8.052;2024-02-21T14:53:23;10.40;99.90
40960;DHT22;27842;52.272;8.052;2024-02-21T14:55:49;10.40;99.90
40960;DHT22;27842;52.272;8.052;2024-02-21T14:58:15;10.30;99.90
40960;DHT22;27842;52.272;8.052;2024-02-21T15:00:45;10.40;99.90
40960;DHT22;27842;52.272;8.052;2024-02-21T15:03:12;10.30;99.90
40960;DHT22;27842;52.272;8.052;2024-02-21T15:05:41;10.30;99.90
40960;DHT22;27842;52.272;8.052;2024-02-21T15:08:07;10.30;99.90
40960;DHT22;27842;52.272;8.052;2024-02-21T15:10:35;10.40;99.90
40960;DHT22;27842;52.272;8.052;2024-02-21T15:13:01;10.30;99.90
40960;DHT22;27842;52.272;8.052;2024-02-21T15:15:26;10.40;99.90
40960;DHT22;27842;52.272;8.052;2024-02-21T15:17:52;10.40;99.90
40960;DHT22;27842;52.272;8.052;2024-02-21T15:20:18;10.40;99.90
40960;DHT22;27842;52.272;8.052;2024-02-21T15:22:45;10.30;99.90
40960;DHT22;27842;52.272;8.052;2024-02-21T15:25:10;10.40;99.90
40960;DHT22;27842;52.272;8.052;2024-02-21T15:27:41;10.30;99.90
40960;DHT22;27842;52.272;8.052;2024-02-21T15:30:07;10.40;99.90
40960;DHT22;27842;52.272;8.052;2024-02-21T15:32:33;10.40;99.90
40960;DHT22;27842;52.272;8.052;2024-02-21T15:34:59;10.40;99.90
40960;DHT22;27842;52.272;8.052;2024-02-21T15:37:24;10.40;99.90
40960;DHT22;27842;52.272;8.052;2024-02-21T15:39:50;10.30;99.90